sensor_id;sensor_type;location;lat;lon;timestamp;pressure;altitude;pressure_sealevel;temperature;humidity
67740;BME280;54536;50.090;14.420;2023-04-27T00:00:50;99692.38;;;11.23;39.69
67740;BME280;54536;50.090;14.420;2023-04-27T00:03:16;99692.78;;;11.18;39.25
67740;BME280;54536;50.090;14.420;2023-04-27T00:05:42;99699.69;;;11.10;39.56
67740;BME280;54536;50.090;14.420;2023-04-27T00:08:08;99700.19;;;11.04;40.24
67740;BME280;54536;50.090;14.420;2023-04-27T00:10:35;99697.41;;;10.74;40.93
67740;BME280;54536;50.090;14.420;2023-04-27T00:13:01;99697.34;;;10.86;41.67
67740;BME280;54536;50.090;14.420;2023-04-27T00:15:28;99696.84;;;10.71;41.93
67740;BME280;54536;50.090;14.420;2023-04-27T00:17:54;99691.22;;;10.85;41.17
67740;BME280;54536;50.090;14.420;2023-04-27T00:20:20;99693.06;;;10.64;41.29
67740;BME280;54536;50.090;14.420;2023-04-27T00:22:46;99686.78;;;10.55;41.23
67740;BME280;54536;50.090;14.420;2023-04-27T00:25:13;99692.50;;;10.60;41.38
67740;BME280;54536;50.090;14.420;2023-04-27T00:27:39;99689.72;;;10.62;41.80
67740;BME280;54536;50.090;14.420;2023-04-27T00:30:05;99690.88;;;10.48;42.36
67740;BME280;54536;50.090;14.420;2023-04-27T00:32:31;99687.25;;;10.60;42.58
67740;BME280;54536;50.090;14.420;2023-04-27T00:34:58;99689.22;;;10.47;43.17
67740;BME280;54536;50.090;14.420;2023-04-27T00:37:24;99682.25;;;10.57;42.50
67740;BME280;54536;50.090;14.420;2023-04-27T00:39:50;99685.31;;;10.41;42.75
67740;BME280;54536;50.090;14.420;2023-04-27T00:42:16;99687.03;;;10.31;43.80
67740;BME280;54536;50.090;14.420;2023-04-27T00:44:45;99687.22;;;10.39;43.63
67740;BME280;54536;50.090;14.420;2023-04-27T00:47:11;99686.22;;;10.30;43.93
67740;BME280;54536;50.090;14.420;2023-04-27T00:49:38;99691.06;;;10.35;43.67
67740;BME280;54536;50.090;14.420;2023-04-27T00:52:06;99686.09;;;10.21;43.92
67740;BME280;54536;50.090;14.420;2023-04-27T00:54:33;99685.22;;;9.99;44.16
67740;BME280;54536;50.090;14.420;2023-04-27T00:56:59;99688.53;;;10.13;44.14
67740;BME280;54536;50.090;14.420;2023-04-27T00:59:26;99686.03;;;10.11;44.04
67740;BME280;54536;50.090;14.420;2023-04-27T01:01:52;99690.25;;;10.02;44.53
67740;BME280;54536;50.090;14.420;2023-04-27T01:04:20;99689.28;;;10.36;45.00
67740;BME280;54536;50.090;14.420;2023-04-27T01:06:46;99689.75;;;10.08;45.04
67740;BME280;54536;50.090;14.420;2023-04-27T01:09:13;99688.84;;;10.19;44.79
67740;BME280;54536;50.090;14.420;2023-04-27T01:11:39;99688.50;;;10.24;44.50
67740;BME280;54536;50.090;14.420;2023-04-27T01:14:06;99688.84;;;10.30;45.15
67740;BME280;54536;50.090;14.420;2023-04-27T01:16:33;99684.16;;;10.34;45.05
67740;BME280;54536;50.090;14.420;2023-04-27T01:19:00;99687.13;;;10.41;45.71
67740;BME280;54536;50.090;14.420;2023-04-27T01:21:26;99687.16;;;10.29;45.33
67740;BME280;54536;50.090;14.420;2023-04-27T01:23:53;99692.41;;;10.29;44.85
67740;BME280;54536;50.090;14.420;2023-04-27T01:26:19;99690.06;;;10.15;45.51
67740;BME280;54536;50.090;14.420;2023-04-27T01:28:46;99686.47;;;10.16;45.05
67740;BME280;54536;50.090;14.420;2023-04-27T01:31:12;99690.97;;;10.25;45.50
67740;BME280;54536;50.090;14.420;2023-04-27T01:33:39;99685.66;;;10.16;45.87
67740;BME280;54536;50.090;14.420;2023-04-27T01:36:06;99684.66;;;10.17;45.33
67740;BME280;54536;50.090;14.420;2023-04-27T01:38:33;99690.56;;;10.09;45.21
67740;BME280;54536;50.090;14.420;2023-04-27T01:41:00;99687.66;;;9.91;45.69
67740;BME280;54536;50.090;14.420;2023-04-27T01:43:30;99693.72;;;9.59;46.46
67740;BME280;54536;50.090;14.420;2023-04-27T01:46:11;99703.09;;;9.73;46.20
67740;BME280;54536;50.090;14.420;2023-04-27T01:48:38;99696.81;;;9.65;46.71
67740;BME280;54536;50.090;14.420;2023-04-27T01:51:04;99701.97;;;9.55;46.67
67740;BME280;54536;50.090;14.420;2023-04-27T01:53:31;99706.94;;;9.58;46.74
67740;BME280;54536;50.090;14.420;2023-04-27T01:55:58;99707.09;;;9.45;46.61
67740;BME280;54536;50.090;14.420;2023-04-27T01:58:25;99712.81;;;9.61;46.04
67740;BME280;54536;50.090;14.420;2023-04-27T02:00:51;99709.31;;;9.61;46.49
67740;BME280;54536;50.090;14.420;2023-04-27T02:03:17;99712.34;;;9.56;46.32
67740;BME280;54536;50.090;14.420;2023-04-27T02:05:43;99715.16;;;9.76;46.99
67740;BME280;54536;50.090;14.420;2023-04-27T02:08:10;99719.34;;;9.78;46.53
67740;BME280;54536;50.090;14.420;2023-04-27T02:10:36;99713.16;;;9.57;47.59
67740;BME280;54536;50.090;14.420;2023-04-27T02:13:02;99719.81;;;9.61;47.40
67740;BME280;54536;50.090;14.420;2023-04-27T02:15:28;99714.91;;;9.79;47.05
67740;BME280;54536;50.090;14.420;2023-04-27T02:17:55;99715.69;;;9.58;46.95
67740;BME280;54536;50.090;14.420;2023-04-27T02:20:22;99718.38;;;9.79;47.56
67740;BME280;54536;50.090;14.420;2023-04-27T02:22:48;99715.50;;;9.82;46.94
67740;BME280;54536;50.090;14.420;2023-04-27T02:25:14;99714.91;;;9.79;46.90
67740;BME280;54536;50.090;14.420;2023-04-27T02:27:40;99721.38;;;9.64;47.43
67740;BME280;54536;50.090;14.420;2023-04-27T02:30:08;99719.00;;;9.72;47.38
67740;BME280;54536;50.090;14.420;2023-04-27T02:32:34;99718.25;;;9.81;48.39
67740;BME280;54536;50.090;14.420;2023-04-27T02:35:01;99721.47;;;9.84;46.91
67740;BME280;54536;50.090;14.420;2023-04-27T02:37:28;99727.81;;;9.82;47.67
67740;BME280;54536;50.090;14.420;2023-04-27T02:39:54;99724.84;;;9.64;47.83
67740;BME280;54536;50.090;14.420;2023-04-27T02:42:20;99727.25;;;9.56;47.52
67740;BME280;54536;50.090;14.420;2023-04-27T02:44:47;99723.28;;;9.73;47.47
67740;BME280;54536;50.090;14.420;2023-04-27T02:47:13;99721.72;;;9.70;47.20
67740;BME280;54536;50.090;14.420;2023-04-27T02:49:39;99726.38;;;9.67;47.21
67740;BME280;54536;50.090;14.420;2023-04-27T02:52:06;99724.69;;;9.77;47.23
67740;BME280;54536;50.090;14.420;2023-04-27T02:54:32;99731.19;;;9.61;47.36
67740;BME280;54536;50.090;14.420;2023-04-27T02:57:00;99737.47;;;9.70;47.81
67740;BME280;54536;50.090;14.420;2023-04-27T02:59:26;99734.31;;;9.55;47.60
67740;BME280;54536;50.090;14.420;2023-04-27T03:01:52;99732.22;;;9.70;47.63
67740;BME280;54536;50.090;14.420;2023-04-27T03:04:18;99723.56;;;9.58;47.33
67740;BME280;54536;50.090;14.420;2023-04-27T03:06:45;99722.34;;;9.51;47.94
67740;BME280;54536;50.090;14.420;2023-04-27T03:09:11;99723.66;;;9.57;48.07
67740;BME280;54536;50.090;14.420;2023-04-27T03:11:40;99730.84;;;9.55;47.32
67740;BME280;54536;50.090;14.420;2023-04-27T03:14:06;99728.34;;;9.42;47.91
67740;BME280;54536;50.090;14.420;2023-04-27T03:16:33;99732.75;;;9.30;48.18
67740;BME280;54536;50.090;14.420;2023-04-27T03:19:00;99734.41;;;9.31;47.67
67740;BME280;54536;50.090;14.420;2023-04-27T03:21:26;99737.91;;;9.32;47.58
67740;BME280;54536;50.090;14.420;2023-04-27T03:23:53;99737.28;;;9.40;47.31
67740;BME280;54536;50.090;14.420;2023-04-27T03:26:19;99746.59;;;9.21;47.08
67740;BME280;54536;50.090;14.420;2023-04-27T03:28:46;99745.25;;;9.38;46.87
67740;BME280;54536;50.090;14.420;2023-04-27T03:31:13;99736.09;;;9.32;47.00
67740;BME280;54536;50.090;14.420;2023-04-27T03:33:40;99743.50;;;9.38;47.13
67740;BME280;54536;50.090;14.420;2023-04-27T03:36:08;99744.56;;;9.25;46.84
67740;BME280;54536;50.090;14.420;2023-04-27T03:38:37;99750.53;;;9.27;47.51
67740;BME280;54536;50.090;14.420;2023-04-27T03:41:04;99746.13;;;9.16;47.53
67740;BME280;54536;50.090;14.420;2023-04-27T03:47:10;99755.06;;;9.36;47.31
67740;BME280;54536;50.090;14.420;2023-04-27T03:49:37;99748.34;;;9.54;47.55
67740;BME280;54536;50.090;14.420;2023-04-27T03:52:03;99761.13;;;9.59;47.29
67740;BME280;54536;50.090;14.420;2023-04-27T03:54:30;99761.13;;;9.59;47.24
67740;BME280;54536;50.090;14.420;2023-04-27T03:56:56;99758.16;;;9.52;47.00
67740;BME280;54536;50.090;14.420;2023-04-27T03:59:23;99765.91;;;9.65;48.58
67740;BME280;54536;50.090;14.420;2023-04-27T04:01:49;99767.00;;;9.29;47.61
67740;BME280;54536;50.090;14.420;2023-04-27T04:04:15;99756.03;;;9.46;47.52
67740;BME280;54536;50.090;14.420;2023-04-27T04:06:41;99765.69;;;9.46;47.15
67740;BME280;54536;50.090;14.420;2023-04-27T04:09:07;99767.47;;;9.56;46.77
67740;BME280;54536;50.090;14.420;2023-04-27T04:11:33;99769.13;;;9.35;47.44
67740;BME280;54536;50.090;14.420;2023-04-27T04:13:59;99779.41;;;9.49;47.01
67740;BME280;54536;50.090;14.420;2023-04-27T04:16:25;99773.69;;;9.33;47.50
67740;BME280;54536;50.090;14.420;2023-04-27T04:18:54;99773.31;;;9.26;47.42
67740;BME280;54536;50.090;14.420;2023-04-27T04:21:20;99779.03;;;9.43;47.36
67740;BME280;54536;50.090;14.420;2023-04-27T04:23:47;99783.47;;;9.42;47.45
67740;BME280;54536;50.090;14.420;2023-04-27T04:26:13;99783.59;;;9.52;46.91
67740;BME280;54536;50.090;14.420;2023-04-27T04:28:39;99782.75;;;9.40;47.59
67740;BME280;54536;50.090;14.420;2023-04-27T04:31:06;99792.63;;;9.36;47.97
67740;BME280;54536;50.090;14.420;2023-04-27T04:33:34;99795.97;;;9.27;48.20
67740;BME280;54536;50.090;14.420;2023-04-27T04:36:03;99794.78;;;9.31;48.95
67740;BME280;54536;50.090;14.420;2023-04-27T04:38:32;99789.31;;;9.46;48.11
67740;BME280;54536;50.090;14.420;2023-04-27T04:40:58;99789.44;;;9.55;48.64
67740;BME280;54536;50.090;14.420;2023-04-27T04:43:25;99800.50;;;9.48;48.58
67740;BME280;54536;50.090;14.420;2023-04-27T04:45:51;99803.38;;;9.56;48.21
67740;BME280;54536;50.090;14.420;2023-04-27T04:48:17;99802.44;;;9.46;48.23
67740;BME280;54536;50.090;14.420;2023-04-27T04:50:47;99804.94;;;9.70;48.00
67740;BME280;54536;50.090;14.420;2023-04-27T04:53:13;99809.59;;;9.66;47.62
67740;BME280;54536;50.090;14.420;2023-04-27T04:55:39;99815.78;;;9.43;47.55
67740;BME280;54536;50.090;14.420;2023-04-27T04:58:06;99813.63;;;9.36;48.32
67740;BME280;54536;50.090;14.420;2023-04-27T05:00:34;99814.72;;;9.45;47.80
67740;BME280;54536;50.090;14.420;2023-04-27T05:03:00;99813.50;;;9.27;48.56
67740;BME280;54536;50.090;14.420;2023-04-27T05:05:27;99816.00;;;9.17;48.00
67740;BME280;54536;50.090;14.420;2023-04-27T05:07:53;99817.44;;;9.44;47.56
67740;BME280;54536;50.090;14.420;2023-04-27T05:10:27;99824.88;;;9.38;48.49
67740;BME280;54536;50.090;14.420;2023-04-27T05:12:54;99820.19;;;9.53;48.07
67740;BME280;54536;50.090;14.420;2023-04-27T05:15:20;99820.19;;;9.53;47.75
67740;BME280;54536;50.090;14.420;2023-04-27T05:17:46;99831.78;;;9.62;47.66
67740;BME280;54536;50.090;14.420;2023-04-27T05:20:12;99830.22;;;9.82;47.52
67740;BME280;54536;50.090;14.420;2023-04-27T05:22:39;99826.16;;;9.67;47.75
67740;BME280;54536;50.090;14.420;2023-04-27T05:25:05;99822.34;;;9.82;48.14
67740;BME280;54536;50.090;14.420;2023-04-27T05:27:32;99818.28;;;9.89;47.04
67740;BME280;54536;50.090;14.420;2023-04-27T05:30:01;99813.75;;;9.91;47.18
67740;BME280;54536;50.090;14.420;2023-04-27T05:32:27;99815.31;;;9.71;47.43
67740;BME280;54536;50.090;14.420;2023-04-27T05:34:53;99823.06;;;9.73;47.68
67740;BME280;54536;50.090;14.420;2023-04-27T05:37:20;99819.94;;;9.90;47.65
67740;BME280;54536;50.090;14.420;2023-04-27T05:39:46;99823.31;;;9.70;47.53
67740;BME280;54536;50.090;14.420;2023-04-27T05:42:12;99823.78;;;9.86;48.27
67740;BME280;54536;50.090;14.420;2023-04-27T05:44:38;99819.97;;;9.79;47.10
67740;BME280;54536;50.090;14.420;2023-04-27T05:47:07;99814.34;;;9.95;47.06
67740;BME280;54536;50.090;14.420;2023-04-27T05:49:33;99817.66;;;10.08;46.99
67740;BME280;54536;50.090;14.420;2023-04-27T05:52:00;99821.13;;;10.08;46.99
67740;BME280;54536;50.090;14.420;2023-04-27T05:54:26;99816.44;;;10.12;46.41
67740;BME280;54536;50.090;14.420;2023-04-27T05:56:52;99817.63;;;10.19;46.38
67740;BME280;54536;50.090;14.420;2023-04-27T05:59:18;99820.25;;;10.19;46.65
67740;BME280;54536;50.090;14.420;2023-04-27T06:01:44;99822.19;;;10.17;46.02
67740;BME280;54536;50.090;14.420;2023-04-27T06:04:10;99819.44;;;10.30;45.86
67740;BME280;54536;50.090;14.420;2023-04-27T06:06:36;99822.00;;;10.41;43.17
67740;BME280;54536;50.090;14.420;2023-04-27T06:09:03;99819.16;;;10.33;42.38
67740;BME280;54536;50.090;14.420;2023-04-27T06:11:29;99819.63;;;10.38;42.29
67740;BME280;54536;50.090;14.420;2023-04-27T06:13:55;99820.34;;;10.40;42.76
67740;BME280;54536;50.090;14.420;2023-04-27T06:16:22;99818.41;;;10.53;42.75
67740;BME280;54536;50.090;14.420;2023-04-27T06:18:49;99817.41;;;10.54;42.20
67740;BME280;54536;50.090;14.420;2023-04-27T06:21:16;99822.47;;;10.99;41.23
67740;BME280;54536;50.090;14.420;2023-04-27T06:23:42;99819.06;;;10.88;40.95
67740;BME280;54536;50.090;14.420;2023-04-27T06:26:09;99824.44;;;11.07;40.45
67740;BME280;54536;50.090;14.420;2023-04-27T06:28:35;99817.75;;;11.24;39.57
67740;BME280;54536;50.090;14.420;2023-04-27T06:31:01;99815.38;;;11.21;39.49
67740;BME280;54536;50.090;14.420;2023-04-27T06:33:27;99813.06;;;11.28;39.23
67740;BME280;54536;50.090;14.420;2023-04-27T06:35:53;99813.94;;;11.38;39.17
67740;BME280;54536;50.090;14.420;2023-04-27T06:38:19;99808.25;;;11.33;38.13
67740;BME280;54536;50.090;14.420;2023-04-27T06:40:49;99815.94;;;11.45;37.59
67740;BME280;54536;50.090;14.420;2023-04-27T06:43:16;99809.75;;;11.56;37.63
67740;BME280;54536;50.090;14.420;2023-04-27T06:45:42;99816.56;;;11.59;38.06
67740;BME280;54536;50.090;14.420;2023-04-27T06:48:08;99816.00;;;11.55;37.18
67740;BME280;54536;50.090;14.420;2023-04-27T06:50:38;99807.59;;;11.71;37.21
67740;BME280;54536;50.090;14.420;2023-04-27T06:53:04;99819.09;;;11.70;37.07
67740;BME280;54536;50.090;14.420;2023-04-27T06:55:31;99820.09;;;11.79;36.88
67740;BME280;54536;50.090;14.420;2023-04-27T06:57:56;99820.25;;;11.77;37.79
67740;BME280;54536;50.090;14.420;2023-04-27T07:00:23;99820.16;;;11.88;37.21
67740;BME280;54536;50.090;14.420;2023-04-27T07:02:49;99817.81;;;11.95;37.10
67740;BME280;54536;50.090;14.420;2023-04-27T07:05:16;99817.44;;;12.09;36.08
67740;BME280;54536;50.090;14.420;2023-04-27T07:07:42;99821.34;;;12.15;36.79
67740;BME280;54536;50.090;14.420;2023-04-27T07:10:08;99819.16;;;12.30;34.95
67740;BME280;54536;50.090;14.420;2023-04-27T07:12:36;99815.81;;;12.37;34.22
67740;BME280;54536;50.090;14.420;2023-04-27T07:15:03;99815.09;;;12.26;34.52
67740;BME280;54536;50.090;14.420;2023-04-27T07:17:31;99826.06;;;12.21;34.28
67740;BME280;54536;50.090;14.420;2023-04-27T07:19:58;99823.19;;;12.34;33.51
67740;BME280;54536;50.090;14.420;2023-04-27T07:22:25;99817.75;;;12.26;33.93
67740;BME280;54536;50.090;14.420;2023-04-27T07:24:51;99819.16;;;12.30;34.19
67740;BME280;54536;50.090;14.420;2023-04-27T07:27:17;99826.94;;;12.41;34.63
67740;BME280;54536;50.090;14.420;2023-04-27T07:29:45;99822.34;;;12.43;33.86
67740;BME280;54536;50.090;14.420;2023-04-27T07:32:11;99820.69;;;12.61;34.13
67740;BME280;54536;50.090;14.420;2023-04-27T07:34:38;99813.75;;;12.80;33.63
67740;BME280;54536;50.090;14.420;2023-04-27T07:37:04;99817.66;;;12.76;33.37
67740;BME280;54536;50.090;14.420;2023-04-27T07:39:30;99814.84;;;12.77;33.34
67740;BME280;54536;50.090;14.420;2023-04-27T07:41:56;99812.91;;;12.70;33.96
67740;BME280;54536;50.090;14.420;2023-04-27T07:44:23;99815.13;;;12.55;33.31
67740;BME280;54536;50.090;14.420;2023-04-27T07:46:50;99804.44;;;12.27;34.34
67740;BME280;54536;50.090;14.420;2023-04-27T07:49:19;99811.09;;;12.51;33.92
67740;BME280;54536;50.090;14.420;2023-04-27T07:51:45;99811.66;;;12.74;34.87
67740;BME280;54536;50.090;14.420;2023-04-27T07:54:11;99808.75;;;12.77;33.65
67740;BME280;54536;50.090;14.420;2023-04-27T07:56:40;99810.94;;;12.81;33.12
67740;BME280;54536;50.090;14.420;2023-04-27T07:59:07;99814.28;;;13.03;32.30
67740;BME280;54536;50.090;14.420;2023-04-27T08:01:33;99819.00;;;13.09;32.29
67740;BME280;54536;50.090;14.420;2023-04-27T08:03:59;99820.06;;;13.16;32.20
67740;BME280;54536;50.090;14.420;2023-04-27T08:06:25;99811.88;;;13.19;32.34
67740;BME280;54536;50.090;14.420;2023-04-27T08:08:53;99815.59;;;13.36;32.41
67740;BME280;54536;50.090;14.420;2023-04-27T08:11:23;99812.66;;;13.49;31.85
67740;BME280;54536;50.090;14.420;2023-04-27T08:13:49;99807.50;;;13.57;31.82
67740;BME280;54536;50.090;14.420;2023-04-27T08:16:15;99813.56;;;13.67;31.15
67740;BME280;54536;50.090;14.420;2023-04-27T08:18:43;99810.63;;;13.70;31.17
67740;BME280;54536;50.090;14.420;2023-04-27T08:21:09;99807.19;;;13.88;31.19
67740;BME280;54536;50.090;14.420;2023-04-27T08:23:36;99799.81;;;14.09;31.42
67740;BME280;54536;50.090;14.420;2023-04-27T08:26:03;99803.84;;;14.13;32.12
67740;BME280;54536;50.090;14.420;2023-04-27T08:28:30;99800.19;;;13.96;31.08
67740;BME280;54536;50.090;14.420;2023-04-27T08:30:56;99803.16;;;13.93;30.89
67740;BME280;54536;50.090;14.420;2023-04-27T08:33:25;99799.41;;;14.32;31.56
67740;BME280;54536;50.090;14.420;2023-04-27T08:35:52;99805.91;;;14.37;28.08
67740;BME280;54536;50.090;14.420;2023-04-27T08:38:19;99804.09;;;14.20;27.28
67740;BME280;54536;50.090;14.420;2023-04-27T08:40:45;99808.31;;;14.31;26.84
67740;BME280;54536;50.090;14.420;2023-04-27T08:43:11;99809.97;;;14.14;27.42
67740;BME280;54536;50.090;14.420;2023-04-27T08:45:38;99806.72;;;14.20;28.07
67740;BME280;54536;50.090;14.420;2023-04-27T08:48:12;99815.19;;;14.23;28.27
67740;BME280;54536;50.090;14.420;2023-04-27T08:50:43;99810.63;;;14.16;27.48
67740;BME280;54536;50.090;14.420;2023-04-27T08:53:20;99811.16;;;14.01;27.72
67740;BME280;54536;50.090;14.420;2023-04-27T08:55:48;99813.78;;;14.01;27.45
67740;BME280;54536;50.090;14.420;2023-04-27T08:58:14;99812.56;;;14.23;27.14
67740;BME280;54536;50.090;14.420;2023-04-27T09:00:42;99805.97;;;14.27;27.23
67740;BME280;54536;50.090;14.420;2023-04-27T09:03:39;99802.41;;;14.19;27.71
67740;BME280;54536;50.090;14.420;2023-04-27T09:06:06;99809.72;;;14.07;27.80
67740;BME280;54536;50.090;14.420;2023-04-27T09:08:43;99817.50;;;14.09;28.21
67740;BME280;54536;50.090;14.420;2023-04-27T09:11:10;99816.03;;;14.42;27.33
67740;BME280;54536;50.090;14.420;2023-04-27T09:13:38;99801.50;;;14.56;26.90
67740;BME280;54536;50.090;14.420;2023-04-27T09:16:05;99802.06;;;14.67;27.24
67740;BME280;54536;50.090;14.420;2023-04-27T09:18:35;99805.63;;;14.76;27.50
67740;BME280;54536;50.090;14.420;2023-04-27T09:21:02;99802.16;;;14.75;27.34
67740;BME280;54536;50.090;14.420;2023-04-27T09:23:31;99798.94;;;14.90;26.91
67740;BME280;54536;50.090;14.420;2023-04-27T09:26:04;99800.56;;;15.09;26.92
67740;BME280;54536;50.090;14.420;2023-04-27T09:28:36;99794.78;;;14.87;27.35
67740;BME280;54536;50.090;14.420;2023-04-27T09:31:03;99793.31;;;14.85;27.68
67740;BME280;54536;50.090;14.420;2023-04-27T09:33:32;99796.38;;;14.80;28.13
67740;BME280;54536;50.090;14.420;2023-04-27T09:36:00;99797.22;;;14.81;27.49
67740;BME280;54536;50.090;14.420;2023-04-27T09:38:27;99796.47;;;14.70;27.92
67740;BME280;54536;50.090;14.420;2023-04-27T09:40:54;99789.13;;;14.82;27.83
67740;BME280;54536;50.090;14.420;2023-04-27T09:43:20;99794.03;;;14.77;27.52
67740;BME280;54536;50.090;14.420;2023-04-27T09:45:47;99797.44;;;15.13;27.22
67740;BME280;54536;50.090;14.420;2023-04-27T09:48:16;99783.75;;;15.18;26.87
67740;BME280;54536;50.090;14.420;2023-04-27T09:50:44;99790.41;;;15.22;27.43
67740;BME280;54536;50.090;14.420;2023-04-27T09:53:14;99803.75;;;15.12;28.03
67740;BME280;54536;50.090;14.420;2023-04-27T10:09:25;99794.66;;;14.89;27.30
67740;BME280;54536;50.090;14.420;2023-04-27T10:11:53;99794.03;;;14.95;27.87
67740;BME280;54536;50.090;14.420;2023-04-27T10:14:22;99795.28;;;15.09;27.30
67740;BME280;54536;50.090;14.420;2023-04-27T10:16:56;99794.16;;;15.11;28.01
67740;BME280;54536;50.090;14.420;2023-04-27T10:19:23;99788.75;;;15.21;27.31
67740;BME280;54536;50.090;14.420;2023-04-27T10:21:58;99790.03;;;15.17;27.90
67740;BME280;54536;50.090;14.420;2023-04-27T10:24:36;99783.59;;;15.19;27.25
67740;BME280;54536;50.090;14.420;2023-04-27T10:27:04;99775.47;;;15.47;27.17
67740;BME280;54536;50.090;14.420;2023-04-27T10:29:40;99773.78;;;15.46;27.16
67740;BME280;54536;50.090;14.420;2023-04-27T10:32:10;99772.50;;;15.50;26.55
67740;BME280;54536;50.090;14.420;2023-04-27T10:34:38;99777.44;;;15.79;26.34
67740;BME280;54536;50.090;14.420;2023-04-27T10:37:07;99772.03;;;15.97;26.30
67740;BME280;54536;50.090;14.420;2023-04-27T10:39:36;99772.53;;;16.01;26.28
67740;BME280;54536;50.090;14.420;2023-04-27T10:42:03;99769.94;;;16.17;25.97
67740;BME280;54536;50.090;14.420;2023-04-27T10:44:33;99767.31;;;16.25;25.27
67740;BME280;54536;50.090;14.420;2023-04-27T10:47:11;99766.28;;;16.34;25.00
67740;BME280;54536;50.090;14.420;2023-04-27T10:49:38;99761.09;;;16.08;24.60
67740;BME280;54536;50.090;14.420;2023-04-27T10:52:05;99769.44;;;16.30;25.61
67740;BME280;54536;50.090;14.420;2023-04-27T10:54:33;99756.69;;;16.33;25.11
67740;BME280;54536;50.090;14.420;2023-04-27T10:57:09;99762.31;;;16.47;25.29
67740;BME280;54536;50.090;14.420;2023-04-27T10:59:50;99762.78;;;16.18;24.85
67740;BME280;54536;50.090;14.420;2023-04-27T11:02:24;99766.88;;;15.87;25.64
67740;BME280;54536;50.090;14.420;2023-04-27T11:04:51;99767.19;;;15.84;26.86
67740;BME280;54536;50.090;14.420;2023-04-27T11:07:25;99766.38;;;15.92;27.30
67740;BME280;54536;50.090;14.420;2023-04-27T11:09:52;99767.19;;;15.84;27.17
67740;BME280;54536;50.090;14.420;2023-04-27T11:12:19;99758.63;;;15.64;27.17
67740;BME280;54536;50.090;14.420;2023-04-27T11:14:46;99767.31;;;15.66;27.07
67740;BME280;54536;50.090;14.420;2023-04-27T11:17:12;99765.75;;;15.64;26.90
67740;BME280;54536;50.090;14.420;2023-04-27T11:19:46;99767.81;;;15.70;26.53
67740;BME280;54536;50.090;14.420;2023-04-27T11:22:14;99767.63;;;15.72;26.79
67740;BME280;54536;50.090;14.420;2023-04-27T11:24:51;99762.88;;;15.83;27.22
67740;BME280;54536;50.090;14.420;2023-04-27T11:27:18;99766.41;;;15.66;27.21
67740;BME280;54536;50.090;14.420;2023-04-27T11:29:47;99762.94;;;15.65;26.83
67740;BME280;54536;50.090;14.420;2023-04-27T11:32:20;99758.13;;;15.61;26.96
67740;BME280;54536;50.090;14.420;2023-04-27T11:34:53;99756.13;;;16.05;26.02
67740;BME280;54536;50.090;14.420;2023-04-27T11:37:21;99763.66;;;16.43;25.48
67740;BME280;54536;50.090;14.420;2023-04-27T11:39:50;99757.53;;;16.58;25.10
67740;BME280;54536;50.090;14.420;2023-04-27T11:42:22;99753.19;;;16.57;24.58
67740;BME280;54536;50.090;14.420;2023-04-27T11:45:00;99759.84;;;16.29;24.88
67740;BME280;54536;50.090;14.420;2023-04-27T11:47:29;99756.00;;;16.23;24.18
67740;BME280;54536;50.090;14.420;2023-04-27T11:49:57;99760.50;;;16.23;24.89
67740;BME280;54536;50.090;14.420;2023-04-27T11:52:28;99755.50;;;16.20;25.03
67740;BME280;54536;50.090;14.420;2023-04-27T11:54:55;99754.03;;;16.25;26.22
67740;BME280;54536;50.090;14.420;2023-04-27T11:57:25;99760.00;;;16.44;25.67
67740;BME280;54536;50.090;14.420;2023-04-27T11:59:55;99755.84;;;16.74;25.18
67740;BME280;54536;50.090;14.420;2023-04-27T12:02:22;99756.72;;;16.58;25.81
67740;BME280;54536;50.090;14.420;2023-04-27T12:04:49;99763.66;;;17.00;24.98
67740;BME280;54536;50.090;14.420;2023-04-27T12:07:17;99749.91;;;16.88;24.69
67740;BME280;54536;50.090;14.420;2023-04-27T12:09:43;99758.34;;;16.67;25.01
67740;BME280;54536;50.090;14.420;2023-04-27T12:12:10;99758.03;;;16.62;25.30
67740;BME280;54536;50.090;14.420;2023-04-27T12:14:38;99756.34;;;16.45;24.88
67740;BME280;54536;50.090;14.420;2023-04-27T12:17:05;99761.00;;;16.51;24.65
67740;BME280;54536;50.090;14.420;2023-04-27T12:19:32;99755.88;;;16.49;25.03
67740;BME280;54536;50.090;14.420;2023-04-27T12:21:58;99753.19;;;16.41;24.92
67740;BME280;54536;50.090;14.420;2023-04-27T12:24:24;99761.50;;;16.30;25.25
67740;BME280;54536;50.090;14.420;2023-04-27T12:26:50;99764.31;;;16.36;25.60
67740;BME280;54536;50.090;14.420;2023-04-27T12:29:17;99761.84;;;16.51;25.53
67740;BME280;54536;50.090;14.420;2023-04-27T12:31:43;99759.00;;;16.61;25.46
67740;BME280;54536;50.090;14.420;2023-04-27T12:34:09;99760.03;;;16.52;25.22
67740;BME280;54536;50.090;14.420;2023-04-27T12:36:35;99756.69;;;16.42;25.11
67740;BME280;54536;50.090;14.420;2023-04-27T12:41:40;99746.31;;;18.76;22.38
67740;BME280;54536;50.090;14.420;2023-04-27T12:44:07;99739.97;;;19.96;20.65
67740;BME280;54536;50.090;14.420;2023-04-27T12:46:33;99739.91;;;20.75;19.92
67740;BME280;54536;50.090;14.420;2023-04-27T12:48:59;99735.09;;;21.55;18.66
67740;BME280;54536;50.090;14.420;2023-04-27T12:51:26;99731.63;;;22.29;18.12
67740;BME280;54536;50.090;14.420;2023-04-27T12:53:56;99730.00;;;22.94;17.43
67740;BME280;54536;50.090;14.420;2023-04-27T12:56:22;99729.78;;;23.09;17.57
67740;BME280;54536;50.090;14.420;2023-04-27T12:58:49;99731.03;;;23.06;17.29
67740;BME280;54536;50.090;14.420;2023-04-27T13:01:15;99718.97;;;21.96;18.28
67740;BME280;54536;50.090;14.420;2023-04-27T13:03:43;99730.19;;;22.33;17.82
67740;BME280;54536;50.090;14.420;2023-04-27T13:06:09;99728.59;;;21.84;18.14
67740;BME280;54536;50.090;14.420;2023-04-27T13:11:03;99724.25;;;24.07;16.80
67740;BME280;54536;50.090;14.420;2023-04-27T13:13:29;99721.66;;;24.57;15.75
67740;BME280;54536;50.090;14.420;2023-04-27T13:15:55;99726.41;;;23.33;17.11